• Join FlightAware (Why Join?)
  • Login
  • US Flag 
02:54AM EDT


 

Airport Tracker/Info


-or-


 

Live Flight TrackerFlight Track Log ✈ DAL3903 ✈ 10-May-2013 ✈ KDTW - KMDT

Flight Track Log - Related Links

Times and Time Zones

All times are in EDT time to prevent confusion due to time zone crossing. See the DAL3903 flight status page for this flight to view local times or setup timezone preferences in your user account.

Time Position Orientation Groundspeed Altitude Reporting Facility
EDT Latitude Longitude Course Direction KTS MPH feet Rate Location/Type
09:00AM 42.2036 -83.3556 94° East 138 159 1,300  Level Cleveland Center
09:01AM 42.1644 -83.3453 169° South 201 231 3,000 2,100 Climbing Cleveland Center
09:02AM 42.1064 -83.3317 170° South 237 273 5,400 2,580 Climbing Cleveland Center
09:03AM 42.2167 -82.7386 90° East  Level FlightAware Approximate
09:03AM 42.0583 -83.2456 127° Southeast 309 356 8,300  Level Cleveland Center
09:04AM 42.2167 -82.5849 90° East  Level FlightAware Approximate
09:04AM 42.0714 -83.1314 81° East 337 388 10,800  Level Cleveland Center
09:05AM 42.2165 -82.4311 94° East  Level FlightAware Approximate
09:05AM 42.1014 -82.9956 73° East 381 438 12,100  Level Cleveland Center
09:06AM 42.1336 -82.8428 74° East 393 452 13,700 1,500 Climbing Cleveland Center
09:07AM 42.1678 -82.6956 73° East 393 452 15,300 1,560 Climbing Cleveland Center
09:08AM 42.1994 -82.5508 73° East 393 452 16,900 1,500 Climbing Cleveland Center
09:09AM 42.2208 -82.4000 79° East 398 458 18,400 1,380 Climbing Cleveland Center
09:10AM 42.2086 -82.2428 96° East 398 458 19,700 900 Climbing Cleveland Center
09:11AM 42.1981 -82.0967 96° East 421 484 20,300 660 Climbing Cleveland Center
09:12AM 42.1750 -81.9336 101° East 443 510 21,100 780 Climbing Cleveland Center
09:13AM 42.0867 -81.8197 136° Southeast 415 478 21,900 780 Climbing Cleveland Center
09:14AM 41.9939 -81.7092 138° Southeast 429 494 22,700 780 Climbing Cleveland Center
09:15AM 41.9011 -81.6042 140° Southeast 442 509 23,500 780 Climbing Cleveland Center
09:16AM 41.7958 -81.4856 140° Southeast 448 516 24,300 780 Climbing Cleveland Center
09:17AM 41.7028 -81.3758 139° Southeast 448 516 25,100 840 Climbing Cleveland Center
09:18AM 41.6056 -81.2692 141° Southeast 448 516 26,000 840 Climbing Cleveland Center
09:19AM 41.5167 -81.1544 136° Southeast 453 521 26,800 780 Climbing Cleveland Center
09:20AM 41.4569 -81.0069 118° Southeast 448 516 27,600 720 Climbing Cleveland Center
09:21AM 41.3969 -80.8572 118° Southeast 453 521 28,300 540 Climbing Cleveland Center
09:22AM 41.3367 -80.7075 118° Southeast 453 521 28,700 600 Climbing Cleveland Center
09:23AM 41.2844 -80.5692 117° Southeast 453 521 29,600 780 Climbing Cleveland Center
09:24AM 41.2261 -80.4203 117° Southeast 453 521 30,300 600 Climbing Cleveland Center
09:25AM 41.1633 -80.2578 117° Southeast 453 521 30,800 300 Climbing Cleveland Center
09:26AM 41.1044 -80.1092 118° Southeast 453 521 31,000 60 Climbing Cleveland Center
09:27AM 41.0411 -79.9528 118° Southeast 459 528 31,000 -600 Level Cleveland Center
09:28AM 40.9756 -79.7939 119° Southeast 471 542 29,900 -1,200 Descending Cleveland Center
09:29AM 40.9117 -79.6353 118° Southeast 477 549 28,700 -1,200 Descending Cleveland Center
09:30AM 40.8478 -79.4769 118° Southeast 483 556 27,500 -1,200 Descending Cleveland Center
09:31AM 40.7814 -79.3189 119° Southeast 483 556 26,300 -1,200 Descending Cleveland Center
09:32AM 40.7192 -79.1667 118° Southeast 483 556 25,100 -1,200 Descending Cleveland Center
09:33AM 40.6567 -79.0122 118° Southeast 478 550 23,900 -1,200 Descending Cleveland Center
09:34AM 40.5964 -78.8769 120° Southeast 478 550 22,700 -1,200 Descending Cleveland Center
09:35AM 40.5439 -78.7225 114° Southeast 478 550 21,500 -1,200 Descending Cleveland Center
09:36AM 40.5181 -78.5539 101° East 465 535 20,400 -1,200 Descending Cleveland Center
09:37AM 40.4942 -78.3881 101° East 459 528 19,200 -1,260 Descending Cleveland Center
09:38AM 40.4739 -78.2311 100° East 444 511 18,000 -1,260 Descending New York Center
09:39AM 40.4503 -78.0756 101° East 438 504 16,800 -1,320 Descending New York Center
09:40AM 40.4303 -77.9289 100° East 427 491 15,400 -1,440 Descending New York Center
09:41AM 40.4139 -77.8181 101° East 389 448 14,000 -1,560 Descending New York Center
09:42AM 40.3978 -77.7019 100° East 345 397 12,400 -1,680 Descending New York Center
09:43AM 40.3761 -77.5744 103° East 320 368 10,600 -1,740 Descending New York Center
09:44AM 40.3628 -77.4778 100° East 310 357 9,000 -1,740 Descending New York Center
09:45AM 40.3464 -77.3617 100° East 298 343 7,200 -1,380 Descending New York Center
09:46AM 40.3219 -77.2750 110° East 285 328 6,300 -1,080 Descending New York Center
09:47AM 40.2894 -77.1822 115° Southeast 263 303 5,100 -660 Descending New York Center
09:48AM 40.2625 -77.1061 115° Southeast 252 290 5,000 -60 Descending New York Center
09:49AM 40.2250 -77.0239 121° Southeast 247 284 5,000 -60 Level New York Center
09:50AM 40.1928 -76.9611 124° Southeast 237 273 4,900 -720 Descending New York Center
09:51AM 40.1531 -76.8869 125° Southeast 232 267 3,600 -1,320 Descending New York Center
09:52AM 40.1253 -76.8194 118° Southeast 221 254 2,300 -960 Descending New York Center
09:53AM 40.1183 -76.7508 98° East 202 232 1,800 -360 Descending New York Center
09:54AM 40.1419 -76.6958 61° Northeast 167 192 1,700 -120 Descending New York Center